createdAt,value
2022-10-19T00:00:47.861Z,0.93
2022-10-19T00:03:18.233Z,0.80
2022-10-19T00:05:47.320Z,0.60
2022-10-19T00:08:13.842Z,0.50
2022-10-19T00:10:41.351Z,0.73
2022-10-19T00:13:09.200Z,0.70
2022-10-19T00:15:39.931Z,0.40
2022-10-19T00:18:07.359Z,0.93
2022-10-19T00:20:37.704Z,0.50
2022-10-19T00:23:04.359Z,0.38
2022-10-19T00:25:30.980Z,0.93
2022-10-19T00:27:57.563Z,0.20
2022-10-19T00:30:24.126Z,0.75
2022-10-19T00:32:50.665Z,0.45
2022-10-19T00:35:17.319Z,0.28
2022-10-19T00:37:43.868Z,0.52
2022-10-19T00:40:10.801Z,0.70
2022-10-19T00:42:37.481Z,0.50
2022-10-19T00:45:14.987Z,0.30
2022-10-19T00:47:43.289Z,0.20
2022-10-19T00:50:14.148Z,0.38
2022-10-19T00:52:41.069Z,0.28
2022-10-19T00:55:08.629Z,0.20
2022-10-19T00:57:35.781Z,0.30
2022-10-19T01:00:05.998Z,0.73
2022-10-19T01:02:32.871Z,0.70
2022-10-19T01:05:00.899Z,0.70
2022-10-19T01:07:28.229Z,0.20
2022-10-19T01:09:55.533Z,0.10
2022-10-19T01:12:39.868Z,0.30
2022-10-19T01:15:30.977Z,0.50
2022-10-19T01:18:33.032Z,0.50
2022-10-19T01:20:59.542Z,0.20
2022-10-19T01:23:53.799Z,0.17
2022-10-19T01:27:08.673Z,0.15
2022-10-19T01:29:53.576Z,0.47
2022-10-19T01:32:33.576Z,1.17
2022-10-19T01:35:25.869Z,0.52
2022-10-19T01:38:10.883Z,0.63
2022-10-19T01:40:43.115Z,0.70
2022-10-19T01:43:30.487Z,0.32
2022-10-19T01:46:18.418Z,0.47
2022-10-19T01:48:53.006Z,0.10
2022-10-19T01:51:26.966Z,0.40
2022-10-19T01:53:57.417Z,0.32
2022-10-19T01:56:27.904Z,0.30
2022-10-19T01:58:58.754Z,0.17
2022-10-19T02:01:30.162Z,0.30
2022-10-19T02:03:57.890Z,0.20
2022-10-19T02:06:24.675Z,0.35
2022-10-19T02:08:52.913Z,0.20
2022-10-19T02:11:21.799Z,0.35
2022-10-19T02:14:01.812Z,0.15
2022-10-19T02:16:36.444Z,0.32
2022-10-19T02:19:05.038Z,0.35
2022-10-19T02:21:32.100Z,0.30
2022-10-19T02:23:58.657Z,0.43
2022-10-19T02:26:25.520Z,0.22
2022-10-19T02:28:55.123Z,0.20
2022-10-19T02:31:22.029Z,0.40
2022-10-19T02:33:48.688Z,0.70
2022-10-19T02:36:15.240Z,0.25
2022-10-19T02:38:42.183Z,0.35
2022-10-19T02:41:26.856Z,0.50
2022-10-19T02:44:00.900Z,0.20
2022-10-19T02:46:44.844Z,1.10
2022-10-19T02:49:13.103Z,0.40
2022-10-19T02:51:54.595Z,0.43
2022-10-19T02:54:21.171Z,0.30
2022-10-19T02:56:47.700Z,0.40
2022-10-19T02:59:14.297Z,0.80
2022-10-19T03:01:40.932Z,0.20
2022-10-19T03:04:07.488Z,0.20
2022-10-19T03:06:33.999Z,0.20
2022-10-19T03:09:00.673Z,0.17
2022-10-19T03:11:27.245Z,0.98
2022-10-19T03:13:53.769Z,0.50
2022-10-19T03:16:24.492Z,0.55
2022-10-19T03:18:51.552Z,0.50
2022-10-19T03:21:19.283Z,0.20
2022-10-19T03:23:46.236Z,0.70
2022-10-19T03:26:16.014Z,0.22
2022-10-19T03:28:42.728Z,0.10
2022-10-19T03:31:09.335Z,0.25
2022-10-19T03:33:35.890Z,0.30
2022-10-19T03:36:20.988Z,0.47
2022-10-19T03:38:50.644Z,0.50
2022-10-19T03:41:17.860Z,0.28
2022-10-19T03:43:44.696Z,0.40
2022-10-19T03:46:11.235Z,1.52
2022-10-19T03:48:37.864Z,0.30
2022-10-19T03:51:08.104Z,0.30
2022-10-19T03:53:35.428Z,0.43
2022-10-19T03:56:08.346Z,0.32
2022-10-19T03:58:37.380Z,0.60
2022-10-19T04:01:12.352Z,0.38
2022-10-19T04:03:39.081Z,0.22
2022-10-19T04:06:07.687Z,0.57
2022-10-19T04:08:36.245Z,0.63
2022-10-19T04:11:05.594Z,1.05
2022-10-19T04:13:33.946Z,0.68
2022-10-19T04:16:00.659Z,0.30
2022-10-19T04:18:27.405Z,0.47
2022-10-19T04:21:02.580Z,0.15
2022-10-19T04:23:35.390Z,0.40
2022-10-19T04:26:06.652Z,0.45
2022-10-19T04:28:34.218Z,0.63
2022-10-19T04:31:05.459Z,0.90
2022-10-19T04:33:32.935Z,0.75
2022-10-19T04:36:00.645Z,0.15
2022-10-19T04:38:28.823Z,0.43
2022-10-19T04:40:56.160Z,0.43
2022-10-19T04:43:22.997Z,0.50
2022-10-19T04:45:49.507Z,1.05
2022-10-19T04:48:16.036Z,0.55
2022-10-19T04:50:42.612Z,0.30
2022-10-19T04:53:09.180Z,0.63
2022-10-19T04:55:41.076Z,0.75
2022-10-19T04:58:07.704Z,0.50
2022-10-19T05:00:34.546Z,0.30
2022-10-19T05:03:01.130Z,0.57
2022-10-19T05:05:27.718Z,0.40
2022-10-19T05:07:54.244Z,0.10
2022-10-19T05:10:20.768Z,0.35
2022-10-19T05:12:47.305Z,0.20
2022-10-19T05:15:13.933Z,1.23
2022-10-19T05:17:40.506Z,1.10
2022-10-19T05:20:07.726Z,0.52
2022-10-19T05:22:34.253Z,0.30
2022-10-19T05:25:00.771Z,0.63
2022-10-19T05:27:27.495Z,0.40
2022-10-19T05:29:54.079Z,0.30
2022-10-19T05:32:20.599Z,0.25
2022-10-19T05:34:47.155Z,0.32
2022-10-19T05:37:13.729Z,0.22
2022-10-19T05:39:40.380Z,0.73
2022-10-19T05:42:06.917Z,0.63
2022-10-19T05:44:33.838Z,0.85
2022-10-19T05:47:00.533Z,0.38
2022-10-19T05:49:27.090Z,0.38
2022-10-19T05:51:54.263Z,0.68
2022-10-19T05:54:22.775Z,0.40
2022-10-19T05:56:51.737Z,0.40
2022-10-19T05:59:20.690Z,0.70
2022-10-19T06:01:48.009Z,0.73
2022-10-19T06:04:14.966Z,0.52
2022-10-19T06:06:42.810Z,0.70
2022-10-19T06:09:11.583Z,0.73
2022-10-19T06:11:40.940Z,0.50
2022-10-19T06:14:14.778Z,0.20
2022-10-19T06:16:41.581Z,0.40
2022-10-19T06:19:08.231Z,0.30
2022-10-19T06:21:35.574Z,0.17
2022-10-19T06:24:04.406Z,0.63
2022-10-19T06:26:32.975Z,0.82
2022-10-19T06:29:01.596Z,0.30
2022-10-19T06:31:33.610Z,0.68
2022-10-19T06:34:01.641Z,0.38
2022-10-19T06:36:31.542Z,0.70
2022-10-19T06:38:59.669Z,0.50
2022-10-19T06:41:26.583Z,0.50
2022-10-19T06:43:54.761Z,0.50
2022-10-19T06:46:24.247Z,0.20
2022-10-19T06:48:52.760Z,0.98
2022-10-19T06:51:19.765Z,0.57
2022-10-19T06:53:46.283Z,0.40
2022-10-19T06:56:13.092Z,0.95
2022-10-19T06:58:40.465Z,0.68
2022-10-19T07:01:08.881Z,0.57
2022-10-19T07:03:36.507Z,0.90
2022-10-19T07:06:06.048Z,0.80
2022-10-19T07:08:33.781Z,0.77
2022-10-19T07:11:02.879Z,0.77
2022-10-19T07:13:30.335Z,0.90
2022-10-19T07:19:02.113Z,1.20
2022-10-19T07:21:28.696Z,0.90
2022-10-19T07:23:55.234Z,0.70
2022-10-19T07:26:26.884Z,0.40
2022-10-19T07:28:56.319Z,0.65
2022-10-19T07:31:25.728Z,0.90
2022-10-19T07:33:54.029Z,0.85
2022-10-19T07:36:20.779Z,0.85
2022-10-19T07:38:47.532Z,0.50
2022-10-19T07:41:16.727Z,0.55
2022-10-19T07:43:45.138Z,0.88
2022-10-19T07:46:15.289Z,1.00
2022-10-19T07:48:42.296Z,0.77
2022-10-19T07:51:09.869Z,0.73
2022-10-19T07:53:37.519Z,0.55
2022-10-19T07:56:15.964Z,0.82
2022-10-19T07:58:43.129Z,1.42
2022-10-19T08:01:12.485Z,1.25
2022-10-19T08:04:42.825Z,0.82
2022-10-19T08:06:27.758Z,0.77
2022-10-19T08:08:55.239Z,0.60
2022-10-19T08:11:30.912Z,0.40
2022-10-19T08:14:02.823Z,0.82
2022-10-19T08:16:34.259Z,0.43
2022-10-19T08:19:03.228Z,0.50
2022-10-19T08:21:34.632Z,1.27
2022-10-19T08:24:01.431Z,1.45
2022-10-19T08:26:33.570Z,0.57
2022-10-19T08:29:01.891Z,0.70
2022-10-19T08:31:28.669Z,0.80
2022-10-19T08:33:59.435Z,0.50
2022-10-19T08:36:26.217Z,0.80
2022-10-19T08:38:52.940Z,0.32
2022-10-19T08:41:22.244Z,0.30
2022-10-19T08:43:55.845Z,0.40
2022-10-19T08:46:33.598Z,0.63
2022-10-19T08:49:01.427Z,0.60
2022-10-19T08:51:32.935Z,1.25
2022-10-19T08:54:02.163Z,0.98
2022-10-19T08:56:50.055Z,0.57
2022-10-19T08:59:36.244Z,0.90
2022-10-19T09:02:53.276Z,0.70
2022-10-19T09:05:35.665Z,0.93
2022-10-19T09:08:02.861Z,0.80
2022-10-19T09:10:35.433Z,1.02
2022-10-19T09:13:07.292Z,0.63
2022-10-19T09:15:41.333Z,0.50
2022-10-19T09:18:13.965Z,0.82
2022-10-19T09:20:45.364Z,0.85
2022-10-19T09:23:35.787Z,0.73
2022-10-19T09:26:03.750Z,0.65
2022-10-19T09:28:36.473Z,0.52
2022-10-19T09:31:12.971Z,0.57
2022-10-19T09:33:40.739Z,0.73
2022-10-19T09:36:08.212Z,0.65
2022-10-19T09:38:34.772Z,0.60
2022-10-19T09:41:22.473Z,0.85
2022-10-19T09:43:54.194Z,0.40
2022-10-19T09:46:38.866Z,0.80
2022-10-19T09:49:05.751Z,0.60
2022-10-19T09:51:44.826Z,1.17
2022-10-19T09:54:35.748Z,0.73
2022-10-19T09:57:03.209Z,0.55
2022-10-19T09:59:34.385Z,0.75
2022-10-19T10:02:15.532Z,1.17
2022-10-19T10:04:46.273Z,1.40
2022-10-19T10:07:21.170Z,1.55
2022-10-19T10:09:47.759Z,1.60
2022-10-19T10:12:15.809Z,3.42
2022-10-19T10:14:44.652Z,3.58
2022-10-19T10:17:25.823Z,2.25
2022-10-19T10:19:58.230Z,2.00
2022-10-19T10:22:34.411Z,1.00
2022-10-19T10:25:01.956Z,0.77
2022-10-19T10:27:37.364Z,0.38
2022-10-19T10:30:16.843Z,0.40
2022-10-19T10:32:54.616Z,1.13
2022-10-19T10:35:37.052Z,0.68
2022-10-19T10:38:26.259Z,0.77
2022-10-19T10:41:15.439Z,0.70
2022-10-19T10:44:04.592Z,0.60
2022-10-19T10:46:37.075Z,0.70
2022-10-19T10:49:06.797Z,0.70
2022-10-19T10:51:33.304Z,0.50
2022-10-19T10:54:21.461Z,0.40
2022-10-19T10:57:04.369Z,0.80
2022-10-19T10:59:57.925Z,0.70
2022-10-19T11:02:37.963Z,0.57
2022-10-19T11:05:19.505Z,0.40
2022-10-19T11:07:50.405Z,0.45
2022-10-19T11:10:24.206Z,0.80
2022-10-19T11:13:10.710Z,0.70
2022-10-19T11:16:00.158Z,1.25
2022-10-19T11:18:42.872Z,0.65
2022-10-19T11:21:14.664Z,0.88
2022-10-19T11:23:53.093Z,0.47
2022-10-19T11:26:40.639Z,0.50
2022-10-19T11:29:37.700Z,0.50
2022-10-19T11:32:11.320Z,0.90
2022-10-19T11:35:04.364Z,0.60
2022-10-19T11:37:49.444Z,0.50
2022-10-19T11:41:18.186Z,1.02
2022-10-19T11:44:03.244Z,0.50
2022-10-19T11:46:34.805Z,0.63
2022-10-19T11:49:10.368Z,0.65
2022-10-19T11:51:46.460Z,0.45
2022-10-19T11:54:38.695Z,1.00
2022-10-19T11:57:21.057Z,1.13
2022-10-19T12:00:08.242Z,0.73
2022-10-19T12:02:55.572Z,0.90
2022-10-19T12:05:29.392Z,1.17
2022-10-19T12:07:59.885Z,1.00
2022-10-19T12:10:51.121Z,0.70
2022-10-19T12:13:26.117Z,0.73
2022-10-19T12:15:55.979Z,0.60
2022-10-19T12:18:41.514Z,0.50
2022-10-19T12:21:22.718Z,0.40
2022-10-19T12:23:50.094Z,0.43
2022-10-19T12:26:19.936Z,0.35
2022-10-19T12:28:55.838Z,0.40
2022-10-19T12:31:24.724Z,0.22
2022-10-19T12:34:21.671Z,0.30
2022-10-19T12:37:00.067Z,0.32
2022-10-19T12:39:38.757Z,0.38
2022-10-19T12:42:36.301Z,0.38
2022-10-19T12:45:08.668Z,0.30
2022-10-19T12:47:35.611Z,0.25
2022-10-19T12:50:02.415Z,0.28
2022-10-19T12:52:44.860Z,0.20
2022-10-19T12:55:27.590Z,0.47
2022-10-19T12:58:04.345Z,0.30
2022-10-19T13:00:38.314Z,0.30
2022-10-19T13:03:24.014Z,0.30
2022-10-19T13:05:58.263Z,0.40
2022-10-19T13:08:36.571Z,0.45
2022-10-19T13:11:15.365Z,0.50
2022-10-19T13:13:58.351Z,0.40
2022-10-19T13:16:37.175Z,0.50
2022-10-19T13:19:12.579Z,0.30
2022-10-19T13:21:52.912Z,0.30
2022-10-19T13:24:20.402Z,0.38
2022-10-19T13:26:46.929Z,0.20
2022-10-19T13:29:42.674Z,0.32
2022-10-19T13:32:32.118Z,0.50
2022-10-19T13:35:31.636Z,0.25
2022-10-19T13:38:16.459Z,0.38
2022-10-19T13:40:49.033Z,0.52
2022-10-19T13:43:19.470Z,0.20
2022-10-19T13:46:04.945Z,0.32
2022-10-19T13:48:57.676Z,0.30
2022-10-19T13:51:32.751Z,0.28
2022-10-19T13:54:37.028Z,0.20
2022-10-19T13:57:18.658Z,0.17
2022-10-19T14:00:09.820Z,0.20
2022-10-19T14:02:46.789Z,0.20
2022-10-19T14:08:31.778Z,0.22
2022-10-19T14:11:17.744Z,0.20
2022-10-19T14:13:44.769Z,0.17
2022-10-19T14:16:20.444Z,0.30
2022-10-19T14:18:56.665Z,0.30
2022-10-19T14:21:36.921Z,0.20
2022-10-19T14:24:20.164Z,0.30
2022-10-19T14:26:47.296Z,0.10
2022-10-19T14:29:14.023Z,0.20
2022-10-19T14:31:40.636Z,0.30
2022-10-19T14:34:09.328Z,0.20
2022-10-19T14:36:45.048Z,0.20
2022-10-19T14:39:29.720Z,0.10
2022-10-19T14:41:57.154Z,0.20
2022-10-19T14:44:37.507Z,0.20
2022-10-19T14:47:22.704Z,0.28
2022-10-19T14:49:50.210Z,0.10
2022-10-19T14:55:06.401Z,0.40
2022-10-19T14:57:36.771Z,0.15
2022-10-19T15:00:14.577Z,0.13
2022-10-19T15:03:01.687Z,0.10
2022-10-19T15:05:37.668Z,0.20
2022-10-19T15:08:24.021Z,0.35
2022-10-19T15:10:51.109Z,0.22
2022-10-19T15:13:28.367Z,0.20
2022-10-19T15:15:55.440Z,0.30
2022-10-19T15:18:47.535Z,0.30
2022-10-19T15:21:19.235Z,0.20
2022-10-19T15:23:50.910Z,0.13
2022-10-19T15:26:26.642Z,0.10
2022-10-19T15:28:55.170Z,0.20
2022-10-19T15:31:26.934Z,0.32
2022-10-19T15:33:59.281Z,1.38
2022-10-19T15:36:26.782Z,0.77
2022-10-19T15:39:18.149Z,0.95
2022-10-19T15:41:51.882Z,0.98
2022-10-19T15:44:50.900Z,0.90
2022-10-19T15:47:18.944Z,0.50
2022-10-19T15:49:56.110Z,0.45
2022-10-19T15:52:30.443Z,0.22
2022-10-19T15:54:59.027Z,0.30
2022-10-19T15:57:31.451Z,0.40
2022-10-19T16:00:01.575Z,0.40
2022-10-19T16:02:28.241Z,0.60
2022-10-19T16:04:55.363Z,1.08
2022-10-19T16:07:32.535Z,1.13
2022-10-19T16:09:59.468Z,1.00
2022-10-19T16:12:26.694Z,1.00
2022-10-19T16:14:54.215Z,0.88
2022-10-19T16:17:21.186Z,0.70
2022-10-19T16:19:47.844Z,0.63
2022-10-19T16:22:15.947Z,0.40
2022-10-19T16:24:43.350Z,0.40
2022-10-19T16:27:15.193Z,0.40
2022-10-19T16:29:46.957Z,0.50
2022-10-19T16:32:13.501Z,0.55
2022-10-19T16:34:41.199Z,0.70
2022-10-19T16:37:07.797Z,0.60
2022-10-19T16:39:34.617Z,0.60
2022-10-19T16:42:01.197Z,0.60
2022-10-19T16:44:27.739Z,0.30
2022-10-19T16:46:56.612Z,0.30
2022-10-19T16:49:23.162Z,0.77
2022-10-19T16:51:51.965Z,0.68
2022-10-19T16:54:21.376Z,0.70
2022-10-19T16:56:48.651Z,0.50
2022-10-19T16:59:18.801Z,0.65
2022-10-19T17:01:46.736Z,0.65
2022-10-19T17:04:15.097Z,0.90
2022-10-19T17:06:41.759Z,0.68
2022-10-19T17:09:40.986Z,1.58
2022-10-19T17:11:54.968Z,2.10
2022-10-19T17:14:21.540Z,2.08
2022-10-19T17:16:50.208Z,2.08
2022-10-19T17:19:16.767Z,1.20
2022-10-19T17:21:43.309Z,1.58
2022-10-19T17:24:20.165Z,1.13
2022-10-19T17:26:49.097Z,1.20
2022-10-19T17:29:15.718Z,0.90
2022-10-19T17:31:43.018Z,1.27
2022-10-19T17:34:11.112Z,1.17
2022-10-19T17:39:17.592Z,1.10
2022-10-19T17:41:45.626Z,1.30
2022-10-19T17:44:12.272Z,1.02
2022-10-19T17:46:38.960Z,0.93
2022-10-19T17:49:05.734Z,1.10
2022-10-19T17:51:34.416Z,0.70
2022-10-19T17:54:09.442Z,0.98
2022-10-19T17:56:37.897Z,1.10
2022-10-19T17:59:07.367Z,1.02
2022-10-19T18:01:34.351Z,1.13
2022-10-19T18:04:01.103Z,1.13
2022-10-19T18:09:47.940Z,1.20
2022-10-19T18:12:14.521Z,1.50
2022-10-19T18:14:41.309Z,1.63
2022-10-19T18:17:07.928Z,1.40
2022-10-19T18:19:34.457Z,1.65
2022-10-19T18:22:00.991Z,1.30
2022-10-19T18:24:27.553Z,1.63
2022-10-19T18:26:54.499Z,1.60
2022-10-19T18:29:23.738Z,1.50
2022-10-19T18:31:53.660Z,1.95
2022-10-19T18:34:27.215Z,1.35
2022-10-19T18:36:54.304Z,1.88
2022-10-19T18:39:21.453Z,1.80
2022-10-19T18:41:52.209Z,1.92
2022-10-19T18:44:23.510Z,2.05
2022-10-19T18:46:53.015Z,1.77
2022-10-19T18:49:19.549Z,1.88
2022-10-19T18:51:50.651Z,1.60
2022-10-19T18:54:20.892Z,1.83
2022-10-19T18:56:47.461Z,1.52
2022-10-19T18:59:14.836Z,1.80
2022-10-19T19:01:41.532Z,2.13
2022-10-19T19:04:10.096Z,1.65
2022-10-19T19:06:37.862Z,1.58
2022-10-19T19:09:08.196Z,1.60
2022-10-19T19:11:37.414Z,1.65
2022-10-19T19:14:15.521Z,1.52
2022-10-19T19:16:44.741Z,1.50
2022-10-19T19:19:15.223Z,1.50
2022-10-19T19:21:44.078Z,1.48
2022-10-19T19:24:13.890Z,1.30
2022-10-19T19:26:44.283Z,1.40
2022-10-19T19:29:10.909Z,1.10
2022-10-19T19:31:39.185Z,1.50
2022-10-19T19:34:06.244Z,1.50
2022-10-19T19:36:32.911Z,1.52
2022-10-19T19:38:59.589Z,1.42
2022-10-19T19:41:28.816Z,1.30
2022-10-19T19:43:57.839Z,1.60
2022-10-19T19:46:24.556Z,1.15
2022-10-19T19:48:51.111Z,1.50
2022-10-19T19:51:21.432Z,1.10
2022-10-19T19:53:48.420Z,0.95
2022-10-19T19:56:16.091Z,1.20
2022-10-19T19:58:43.792Z,1.08
2022-10-19T20:01:17.001Z,1.02
2022-10-19T20:03:45.036Z,0.73
2022-10-19T20:06:12.479Z,0.80
2022-10-19T20:08:39.281Z,1.02
2022-10-19T20:11:11.600Z,0.70
2022-10-19T20:13:38.497Z,0.98
2022-10-19T20:16:16.579Z,0.82
2022-10-19T20:18:48.636Z,0.95
2022-10-19T20:21:16.717Z,0.82
2022-10-19T20:23:47.049Z,0.75
2022-10-19T20:26:22.176Z,0.95
2022-10-19T20:28:51.195Z,0.90
2022-10-19T20:31:18.768Z,0.82
2022-10-19T20:33:47.340Z,0.80
2022-10-19T20:36:16.980Z,0.65
2022-10-19T20:38:55.188Z,0.65
2022-10-19T20:41:23.795Z,0.85
2022-10-19T20:43:50.615Z,0.80
2022-10-19T20:46:24.973Z,0.50
2022-10-19T20:48:52.631Z,0.68
2022-10-19T20:51:38.351Z,0.50
2022-10-19T20:54:08.540Z,0.45
2022-10-19T20:56:37.229Z,0.60
2022-10-19T20:59:12.582Z,0.52
2022-10-19T21:01:40.221Z,0.45
2022-10-19T21:04:09.556Z,0.47
2022-10-19T21:06:40.023Z,0.55
2022-10-19T21:09:07.653Z,0.57
2022-10-19T21:11:40.116Z,0.60
2022-10-19T21:14:09.288Z,0.70
2022-10-19T21:16:37.607Z,0.73
2022-10-19T21:19:06.989Z,0.65
2022-10-19T21:21:39.839Z,0.68
2022-10-19T21:24:10.625Z,0.63
2022-10-19T21:26:39.216Z,0.63
2022-10-19T21:29:09.382Z,0.77
2022-10-19T21:31:38.400Z,0.40
2022-10-19T21:34:11.220Z,0.80
2022-10-19T21:36:38.192Z,0.88
2022-10-19T21:39:05.093Z,0.90
2022-10-19T21:41:32.386Z,0.70
2022-10-19T21:43:59.462Z,0.60
2022-10-19T21:46:26.636Z,0.60
2022-10-19T21:48:54.369Z,0.75
2022-10-19T21:51:47.400Z,0.50
2022-10-19T21:54:17.155Z,0.70
2022-10-19T21:56:44.311Z,0.57
2022-10-19T21:59:11.998Z,1.00
2022-10-19T22:01:41.360Z,0.47
2022-10-19T22:04:13.140Z,0.90
2022-10-19T22:06:40.109Z,0.80
2022-10-19T22:09:09.317Z,0.50
2022-10-19T22:11:36.065Z,0.80
2022-10-19T22:14:04.295Z,0.98
2022-10-19T22:16:32.573Z,0.60
2022-10-19T22:18:59.200Z,1.00
2022-10-19T22:21:28.811Z,0.57
2022-10-19T22:24:00.820Z,0.60
2022-10-19T22:26:39.590Z,0.80
2022-10-19T22:29:07.251Z,0.77
2022-10-19T22:31:35.751Z,0.77
2022-10-19T22:34:05.413Z,0.80
2022-10-19T22:36:32.066Z,0.65
2022-10-19T22:38:58.685Z,1.20
2022-10-19T22:41:25.356Z,0.70
2022-10-19T22:43:51.904Z,0.70
2022-10-19T22:46:20.085Z,0.70
2022-10-19T22:48:46.616Z,0.60
2022-10-19T22:51:13.169Z,0.85
2022-10-19T22:53:39.700Z,0.50
2022-10-19T22:56:07.197Z,0.80
2022-10-19T22:58:33.735Z,0.50
2022-10-19T23:01:06.592Z,0.40
2022-10-19T23:03:34.017Z,0.50
2022-10-19T23:06:01.953Z,0.60
2022-10-19T23:08:28.619Z,0.80
2022-10-19T23:10:55.213Z,0.95
2022-10-19T23:13:22.012Z,0.70
2022-10-19T23:15:48.592Z,0.60
2022-10-19T23:18:15.124Z,0.68
2022-10-19T23:20:41.652Z,0.70
2022-10-19T23:23:09.059Z,0.50
2022-10-19T23:25:36.953Z,0.73
2022-10-19T23:28:03.543Z,0.90
2022-10-19T23:30:30.208Z,0.65
2022-10-19T23:32:56.757Z,0.30
2022-10-19T23:35:23.288Z,0.70
2022-10-19T23:37:49.808Z,0.45
2022-10-19T23:40:16.349Z,0.70
2022-10-19T23:42:43.005Z,0.55
2022-10-19T23:45:09.974Z,0.80
2022-10-19T23:47:36.828Z,0.55
2022-10-19T23:50:04.025Z,0.82
2022-10-19T23:52:30.571Z,0.57
2022-10-19T23:54:57.096Z,0.43
2022-10-19T23:57:23.643Z,0.85
2022-10-19T23:59:50.168Z,0.77
